sensor_id;sensor_type;location;lat;lon;timestamp;P1;durP1;ratioP1;P2;durP2;ratioP2
33347;SDS011;19707;51.158;17.124;2023-04-24T00:00:20;20.00;;;11.90;;
33347;SDS011;19707;51.158;17.124;2023-04-24T00:03:42;17.50;;;12.00;;
33347;SDS011;19707;51.158;17.124;2023-04-24T00:06:44;17.90;;;12.70;;
33347;SDS011;19707;51.158;17.124;2023-04-24T00:09:51;14.60;;;11.90;;
33347;SDS011;19707;51.158;17.124;2023-04-24T00:12:53;14.70;;;11.80;;
33347;SDS011;19707;51.158;17.124;2023-04-24T00:15:55;18.30;;;12.60;;
33347;SDS011;19707;51.158;17.124;2023-04-24T00:18:58;19.60;;;13.60;;
33347;SDS011;19707;51.158;17.124;2023-04-24T00:22:00;18.50;;;13.40;;
33347;SDS011;19707;51.158;17.124;2023-04-24T00:25:02;17.80;;;13.80;;
33347;SDS011;19707;51.158;17.124;2023-04-24T00:28:05;20.00;;;14.00;;
33347;SDS011;19707;51.158;17.124;2023-04-24T00:31:07;22.70;;;14.70;;
33347;SDS011;19707;51.158;17.124;2023-04-24T00:34:10;18.70;;;14.50;;
33347;SDS011;19707;51.158;17.124;2023-04-24T00:37:13;17.80;;;13.70;;
33347;SDS011;19707;51.158;17.124;2023-04-24T00:40:15;22.80;;;14.30;;
33347;SDS011;19707;51.158;17.124;2023-04-24T00:43:17;18.30;;;13.20;;
33347;SDS011;19707;51.158;17.124;2023-04-24T00:46:20;18.80;;;13.50;;
33347;SDS011;19707;51.158;17.124;2023-04-24T00:49:23;20.40;;;14.50;;
33347;SDS011;19707;51.158;17.124;2023-04-24T00:52:25;18.80;;;14.40;;
33347;SDS011;19707;51.158;17.124;2023-04-24T00:55:28;19.10;;;13.80;;
33347;SDS011;19707;51.158;17.124;2023-04-24T00:58:30;20.50;;;14.70;;
33347;SDS011;19707;51.158;17.124;2023-04-24T01:01:33;18.70;;;14.00;;
33347;SDS011;19707;51.158;17.124;2023-04-24T01:04:36;23.10;;;15.10;;
33347;SDS011;19707;51.158;17.124;2023-04-24T01:07:39;18.50;;;14.30;;
33347;SDS011;19707;51.158;17.124;2023-04-24T01:10:45;18.90;;;14.70;;
33347;SDS011;19707;51.158;17.124;2023-04-24T01:13:49;19.70;;;14.20;;
33347;SDS011;19707;51.158;17.124;2023-04-24T01:16:51;22.20;;;15.50;;
33347;SDS011;19707;51.158;17.124;2023-04-24T01:19:54;20.80;;;15.10;;
33347;SDS011;19707;51.158;17.124;2023-04-24T01:22:58;20.90;;;15.00;;
33347;SDS011;19707;51.158;17.124;2023-04-24T01:26:01;24.80;;;16.10;;
33347;SDS011;19707;51.158;17.124;2023-04-24T01:29:03;19.40;;;15.40;;
33347;SDS011;19707;51.158;17.124;2023-04-24T01:32:05;19.20;;;15.70;;
33347;SDS011;19707;51.158;17.124;2023-04-24T01:35:08;20.40;;;16.30;;
33347;SDS011;19707;51.158;17.124;2023-04-24T01:38:10;21.60;;;16.10;;
33347;SDS011;19707;51.158;17.124;2023-04-24T01:41:13;19.90;;;16.20;;
33347;SDS011;19707;51.158;17.124;2023-04-24T01:44:15;23.70;;;16.30;;
33347;SDS011;19707;51.158;17.124;2023-04-24T01:47:18;22.70;;;16.70;;
33347;SDS011;19707;51.158;17.124;2023-04-24T01:50:20;24.80;;;16.90;;
33347;SDS011;19707;51.158;17.124;2023-04-24T01:53:22;20.20;;;16.50;;
33347;SDS011;19707;51.158;17.124;2023-04-24T01:56:25;22.80;;;17.40;;
33347;SDS011;19707;51.158;17.124;2023-04-24T01:59:27;23.30;;;17.70;;
33347;SDS011;19707;51.158;17.124;2023-04-24T02:02:30;23.40;;;17.40;;
33347;SDS011;19707;51.158;17.124;2023-04-24T02:05:32;20.90;;;16.80;;
33347;SDS011;19707;51.158;17.124;2023-04-24T02:08:34;23.20;;;16.80;;
33347;SDS011;19707;51.158;17.124;2023-04-24T02:11:36;26.10;;;17.50;;
33347;SDS011;19707;51.158;17.124;2023-04-24T02:14:38;25.00;;;18.50;;
33347;SDS011;19707;51.158;17.124;2023-04-24T02:17:41;25.00;;;17.60;;
33347;SDS011;19707;51.158;17.124;2023-04-24T02:20:43;22.40;;;17.00;;
33347;SDS011;19707;51.158;17.124;2023-04-24T02:23:46;22.20;;;17.60;;
33347;SDS011;19707;51.158;17.124;2023-04-24T02:26:48;22.50;;;17.30;;
33347;SDS011;19707;51.158;17.124;2023-04-24T02:29:50;21.30;;;16.70;;
33347;SDS011;19707;51.158;17.124;2023-04-24T02:32:53;22.10;;;17.80;;
33347;SDS011;19707;51.158;17.124;2023-04-24T02:35:55;21.10;;;17.70;;
33347;SDS011;19707;51.158;17.124;2023-04-24T02:38:58;22.20;;;17.70;;
33347;SDS011;19707;51.158;17.124;2023-04-24T02:42:01;22.10;;;19.00;;
33347;SDS011;19707;51.158;17.124;2023-04-24T02:45:04;23.70;;;18.80;;
33347;SDS011;19707;51.158;17.124;2023-04-24T02:48:10;24.60;;;18.70;;
33347;SDS011;19707;51.158;17.124;2023-04-24T02:51:12;29.30;;;20.00;;
33347;SDS011;19707;51.158;17.124;2023-04-24T02:54:15;25.90;;;19.80;;
33347;SDS011;19707;51.158;17.124;2023-04-24T02:57:17;23.60;;;19.60;;
33347;SDS011;19707;51.158;17.124;2023-04-24T03:00:20;25.40;;;19.20;;
33347;SDS011;19707;51.158;17.124;2023-04-24T03:03:23;25.20;;;18.80;;
33347;SDS011;19707;51.158;17.124;2023-04-24T03:06:25;22.10;;;18.70;;
33347;SDS011;19707;51.158;17.124;2023-04-24T03:09:28;25.60;;;19.10;;
33347;SDS011;19707;51.158;17.124;2023-04-24T03:12:31;23.80;;;19.50;;
33347;SDS011;19707;51.158;17.124;2023-04-24T03:15:33;23.00;;;18.40;;
33347;SDS011;19707;51.158;17.124;2023-04-24T03:18:35;26.30;;;19.40;;
33347;SDS011;19707;51.158;17.124;2023-04-24T03:21:37;27.10;;;20.00;;
33347;SDS011;19707;51.158;17.124;2023-04-24T03:24:42;23.00;;;19.50;;
33347;SDS011;19707;51.158;17.124;2023-04-24T03:27:44;27.10;;;20.50;;
33347;SDS011;19707;51.158;17.124;2023-04-24T03:30:46;23.30;;;18.80;;
33347;SDS011;19707;51.158;17.124;2023-04-24T03:33:48;31.20;;;20.80;;
33347;SDS011;19707;51.158;17.124;2023-04-24T03:36:51;25.90;;;19.60;;
33347;SDS011;19707;51.158;17.124;2023-04-24T03:39:54;25.80;;;18.70;;
33347;SDS011;19707;51.158;17.124;2023-04-24T03:42:56;28.40;;;19.70;;
33347;SDS011;19707;51.158;17.124;2023-04-24T03:45:58;25.90;;;19.70;;
33347;SDS011;19707;51.158;17.124;2023-04-24T03:49:01;25.10;;;19.50;;
33347;SDS011;19707;51.158;17.124;2023-04-24T03:52:03;24.40;;;19.80;;
33347;SDS011;19707;51.158;17.124;2023-04-24T03:55:06;25.20;;;18.80;;
33347;SDS011;19707;51.158;17.124;2023-04-24T03:58:08;29.10;;;20.10;;
33347;SDS011;19707;51.158;17.124;2023-04-24T04:01:11;23.70;;;18.60;;
33347;SDS011;19707;51.158;17.124;2023-04-24T04:04:13;24.00;;;19.30;;
33347;SDS011;19707;51.158;17.124;2023-04-24T04:07:16;26.70;;;19.30;;
33347;SDS011;19707;51.158;17.124;2023-04-24T04:10:18;26.90;;;19.30;;
33347;SDS011;19707;51.158;17.124;2023-04-24T04:13:21;26.50;;;19.40;;
33347;SDS011;19707;51.158;17.124;2023-04-24T04:16:24;28.70;;;19.90;;
33347;SDS011;19707;51.158;17.124;2023-04-24T04:19:26;26.10;;;19.60;;
33347;SDS011;19707;51.158;17.124;2023-04-24T04:22:29;23.60;;;18.80;;
33347;SDS011;19707;51.158;17.124;2023-04-24T04:25:31;26.70;;;18.50;;
33347;SDS011;19707;51.158;17.124;2023-04-24T04:28:34;26.90;;;17.80;;
33347;SDS011;19707;51.158;17.124;2023-04-24T04:31:37;26.10;;;17.90;;
33347;SDS011;19707;51.158;17.124;2023-04-24T04:34:39;26.10;;;17.60;;
33347;SDS011;19707;51.158;17.124;2023-04-24T04:37:42;23.10;;;17.00;;
33347;SDS011;19707;51.158;17.124;2023-04-24T04:40:44;24.90;;;16.60;;
33347;SDS011;19707;51.158;17.124;2023-04-24T04:43:47;24.40;;;18.20;;
33347;SDS011;19707;51.158;17.124;2023-04-24T04:46:49;24.40;;;17.40;;
33347;SDS011;19707;51.158;17.124;2023-04-24T04:49:55;31.30;;;18.50;;
33347;SDS011;19707;51.158;17.124;2023-04-24T04:52:57;22.70;;;17.00;;
33347;SDS011;19707;51.158;17.124;2023-04-24T04:56:00;24.30;;;16.70;;
33347;SDS011;19707;51.158;17.124;2023-04-24T04:59:02;23.00;;;16.20;;
33347;SDS011;19707;51.158;17.124;2023-04-24T05:02:05;36.60;;;16.80;;
33347;SDS011;19707;51.158;17.124;2023-04-24T05:05:07;27.00;;;16.20;;
33347;SDS011;19707;51.158;17.124;2023-04-24T05:08:10;23.80;;;16.20;;
33347;SDS011;19707;51.158;17.124;2023-04-24T05:11:13;20.10;;;14.90;;
33347;SDS011;19707;51.158;17.124;2023-04-24T05:14:15;27.80;;;15.00;;
33347;SDS011;19707;51.158;17.124;2023-04-24T05:17:19;16.70;;;13.70;;
33347;SDS011;19707;51.158;17.124;2023-04-24T05:20:22;22.70;;;13.30;;
33347;SDS011;19707;51.158;17.124;2023-04-24T05:23:25;25.20;;;13.70;;
33347;SDS011;19707;51.158;17.124;2023-04-24T05:26:27;18.80;;;13.20;;
33347;SDS011;19707;51.158;17.124;2023-04-24T05:29:30;19.40;;;12.60;;
33347;SDS011;19707;51.158;17.124;2023-04-24T05:32:33;17.00;;;12.00;;
33347;SDS011;19707;51.158;17.124;2023-04-24T05:35:35;16.20;;;11.20;;
33347;SDS011;19707;51.158;17.124;2023-04-24T05:38:38;18.20;;;12.60;;
33347;SDS011;19707;51.158;17.124;2023-04-24T05:41:40;18.30;;;13.70;;
33347;SDS011;19707;51.158;17.124;2023-04-24T05:44:42;16.30;;;11.30;;
33347;SDS011;19707;51.158;17.124;2023-04-24T05:47:44;17.70;;;11.80;;
33347;SDS011;19707;51.158;17.124;2023-04-24T05:50:47;17.80;;;11.40;;
33347;SDS011;19707;51.158;17.124;2023-04-24T05:53:50;19.40;;;11.70;;
33347;SDS011;19707;51.158;17.124;2023-04-24T05:56:52;13.30;;;10.90;;
33347;SDS011;19707;51.158;17.124;2023-04-24T05:59:56;18.30;;;11.30;;
33347;SDS011;19707;51.158;17.124;2023-04-24T06:02:59;16.10;;;11.10;;
33347;SDS011;19707;51.158;17.124;2023-04-24T06:06:02;15.50;;;10.10;;
33347;SDS011;19707;51.158;17.124;2023-04-24T06:09:04;15.40;;;9.70;;
33347;SDS011;19707;51.158;17.124;2023-04-24T06:12:06;16.20;;;10.10;;
33347;SDS011;19707;51.158;17.124;2023-04-24T06:15:10;12.20;;;9.00;;
33347;SDS011;19707;51.158;17.124;2023-04-24T06:18:12;12.50;;;9.20;;
33347;SDS011;19707;51.158;17.124;2023-04-24T06:21:15;14.00;;;9.20;;
33347;SDS011;19707;51.158;17.124;2023-04-24T06:24:18;10.30;;;7.60;;
33347;SDS011;19707;51.158;17.124;2023-04-24T06:27:21;11.50;;;6.90;;
33347;SDS011;19707;51.158;17.124;2023-04-24T06:30:23;8.60;;;6.80;;
33347;SDS011;19707;51.158;17.124;2023-04-24T06:33:26;18.70;;;7.40;;
33347;SDS011;19707;51.158;17.124;2023-04-24T06:36:28;19.20;;;7.90;;
33347;SDS011;19707;51.158;17.124;2023-04-24T06:39:30;14.00;;;7.50;;
33347;SDS011;19707;51.158;17.124;2023-04-24T06:42:33;11.50;;;6.30;;
33347;SDS011;19707;51.158;17.124;2023-04-24T06:45:36;8.00;;;6.70;;
33347;SDS011;19707;51.158;17.124;2023-04-24T06:48:41;9.50;;;6.90;;
33347;SDS011;19707;51.158;17.124;2023-04-24T06:51:43;15.00;;;7.30;;
33347;SDS011;19707;51.158;17.124;2023-04-24T06:54:46;11.70;;;7.40;;
33347;SDS011;19707;51.158;17.124;2023-04-24T06:57:48;13.50;;;7.60;;
33347;SDS011;19707;51.158;17.124;2023-04-24T07:00:50;12.10;;;8.60;;
33347;SDS011;19707;51.158;17.124;2023-04-24T07:03:55;13.60;;;8.40;;
33347;SDS011;19707;51.158;17.124;2023-04-24T07:06:57;12.60;;;10.80;;
33347;SDS011;19707;51.158;17.124;2023-04-24T07:09:59;32.00;;;23.60;;
33347;SDS011;19707;51.158;17.124;2023-04-24T07:13:02;36.30;;;26.20;;
33347;SDS011;19707;51.158;17.124;2023-04-24T07:16:04;23.00;;;17.90;;
33347;SDS011;19707;51.158;17.124;2023-04-24T07:19:07;26.90;;;20.30;;
33347;SDS011;19707;51.158;17.124;2023-04-24T07:22:09;15.60;;;12.60;;
33347;SDS011;19707;51.158;17.124;2023-04-24T07:25:13;16.60;;;14.30;;
33347;SDS011;19707;51.158;17.124;2023-04-24T07:28:15;32.60;;;21.10;;
33347;SDS011;19707;51.158;17.124;2023-04-24T07:31:19;50.60;;;37.60;;
33347;SDS011;19707;51.158;17.124;2023-04-24T07:34:22;24.40;;;16.90;;
33347;SDS011;19707;51.158;17.124;2023-04-24T07:37:25;13.60;;;11.30;;
33347;SDS011;19707;51.158;17.124;2023-04-24T07:40:27;13.00;;;10.00;;
33347;SDS011;19707;51.158;17.124;2023-04-24T07:43:29;10.60;;;8.20;;
33347;SDS011;19707;51.158;17.124;2023-04-24T07:46:32;13.50;;;8.70;;
33347;SDS011;19707;51.158;17.124;2023-04-24T07:49:35;9.30;;;6.40;;
33347;SDS011;19707;51.158;17.124;2023-04-24T07:52:38;10.30;;;7.00;;
33347;SDS011;19707;51.158;17.124;2023-04-24T07:55:41;7.60;;;5.40;;
33347;SDS011;19707;51.158;17.124;2023-04-24T07:58:44;8.60;;;6.00;;
33347;SDS011;19707;51.158;17.124;2023-04-24T08:01:46;8.50;;;6.20;;
33347;SDS011;19707;51.158;17.124;2023-04-24T08:04:49;10.70;;;6.60;;
33347;SDS011;19707;51.158;17.124;2023-04-24T08:07:51;10.70;;;6.10;;
33347;SDS011;19707;51.158;17.124;2023-04-24T08:10:54;9.40;;;6.90;;
33347;SDS011;19707;51.158;17.124;2023-04-24T08:13:56;11.20;;;6.70;;
33347;SDS011;19707;51.158;17.124;2023-04-24T08:16:59;11.10;;;8.10;;
33347;SDS011;19707;51.158;17.124;2023-04-24T08:20:02;12.90;;;9.50;;
33347;SDS011;19707;51.158;17.124;2023-04-24T08:23:06;8.40;;;7.40;;
33347;SDS011;19707;51.158;17.124;2023-04-24T08:26:09;9.70;;;7.60;;
33347;SDS011;19707;51.158;17.124;2023-04-24T08:29:13;30.80;;;20.20;;
33347;SDS011;19707;51.158;17.124;2023-04-24T08:32:15;19.70;;;11.30;;
33347;SDS011;19707;51.158;17.124;2023-04-24T08:35:18;13.10;;;8.20;;
33347;SDS011;19707;51.158;17.124;2023-04-24T08:38:21;9.90;;;7.60;;
33347;SDS011;19707;51.158;17.124;2023-04-24T08:41:24;15.10;;;9.00;;
33347;SDS011;19707;51.158;17.124;2023-04-24T08:44:27;12.00;;;8.40;;
33347;SDS011;19707;51.158;17.124;2023-04-24T08:47:30;11.70;;;7.60;;
33347;SDS011;19707;51.158;17.124;2023-04-24T08:50:34;14.10;;;8.30;;
33347;SDS011;19707;51.158;17.124;2023-04-24T08:53:36;11.00;;;8.20;;
33347;SDS011;19707;51.158;17.124;2023-04-24T08:56:39;9.30;;;7.50;;
33347;SDS011;19707;51.158;17.124;2023-04-24T08:59:42;8.20;;;7.20;;
33347;SDS011;19707;51.158;17.124;2023-04-24T09:02:45;8.00;;;6.90;;
33347;SDS011;19707;51.158;17.124;2023-04-24T09:05:49;13.00;;;7.80;;
33347;SDS011;19707;51.158;17.124;2023-04-24T09:08:52;11.70;;;6.90;;
33347;SDS011;19707;51.158;17.124;2023-04-24T09:11:56;12.70;;;8.00;;
33347;SDS011;19707;51.158;17.124;2023-04-24T09:14:58;8.60;;;7.30;;
33347;SDS011;19707;51.158;17.124;2023-04-24T09:18:03;11.40;;;7.20;;
33347;SDS011;19707;51.158;17.124;2023-04-24T09:21:07;7.90;;;7.00;;
33347;SDS011;19707;51.158;17.124;2023-04-24T09:24:17;19.10;;;14.70;;
33347;SDS011;19707;51.158;17.124;2023-04-24T09:27:23;13.00;;;11.60;;
33347;SDS011;19707;51.158;17.124;2023-04-24T09:30:25;10.20;;;7.70;;
33347;SDS011;19707;51.158;17.124;2023-04-24T09:33:28;14.40;;;8.60;;
33347;SDS011;19707;51.158;17.124;2023-04-24T09:36:32;10.10;;;8.10;;
33347;SDS011;19707;51.158;17.124;2023-04-24T09:39:35;10.80;;;7.80;;
33347;SDS011;19707;51.158;17.124;2023-04-24T09:42:38;8.30;;;7.40;;
33347;SDS011;19707;51.158;17.124;2023-04-24T09:45:41;17.90;;;15.30;;
33347;SDS011;19707;51.158;17.124;2023-04-24T09:48:43;11.90;;;10.40;;
33347;SDS011;19707;51.158;17.124;2023-04-24T09:51:45;11.90;;;9.80;;
33347;SDS011;19707;51.158;17.124;2023-04-24T09:54:52;24.90;;;15.60;;
33347;SDS011;19707;51.158;17.124;2023-04-24T09:57:56;11.00;;;7.90;;
33347;SDS011;19707;51.158;17.124;2023-04-24T10:00:59;9.30;;;6.80;;
33347;SDS011;19707;51.158;17.124;2023-04-24T10:04:01;13.50;;;9.80;;
33347;SDS011;19707;51.158;17.124;2023-04-24T10:07:04;10.80;;;6.70;;
33347;SDS011;19707;51.158;17.124;2023-04-24T10:10:08;10.00;;;6.50;;
33347;SDS011;19707;51.158;17.124;2023-04-24T10:13:12;17.20;;;11.80;;
33347;SDS011;19707;51.158;17.124;2023-04-24T10:16:15;13.90;;;9.50;;
33347;SDS011;19707;51.158;17.124;2023-04-24T10:19:17;8.70;;;6.50;;
33347;SDS011;19707;51.158;17.124;2023-04-24T10:22:22;7.30;;;6.50;;
33347;SDS011;19707;51.158;17.124;2023-04-24T10:25:27;10.80;;;7.60;;
33347;SDS011;19707;51.158;17.124;2023-04-24T10:28:30;8.60;;;6.60;;
33347;SDS011;19707;51.158;17.124;2023-04-24T10:31:33;8.50;;;7.20;;
33347;SDS011;19707;51.158;17.124;2023-04-24T10:34:36;10.40;;;6.90;;
33347;SDS011;19707;51.158;17.124;2023-04-24T10:37:48;7.20;;;6.50;;
33347;SDS011;19707;51.158;17.124;2023-04-24T10:41:11;10.50;;;6.00;;
33347;SDS011;19707;51.158;17.124;2023-04-24T10:44:22;8.20;;;5.90;;
33347;SDS011;19707;51.158;17.124;2023-04-24T10:47:25;10.40;;;6.60;;
33347;SDS011;19707;51.158;17.124;2023-04-24T10:50:28;7.80;;;6.10;;
33347;SDS011;19707;51.158;17.124;2023-04-24T10:53:31;6.00;;;5.50;;
33347;SDS011;19707;51.158;17.124;2023-04-24T10:56:37;58.50;;;46.30;;
33347;SDS011;19707;51.158;17.124;2023-04-24T11:02:45;12.70;;;11.20;;
33347;SDS011;19707;51.158;17.124;2023-04-24T11:05:58;12.30;;;10.70;;
33347;SDS011;19707;51.158;17.124;2023-04-24T11:09:03;27.90;;;21.60;;
33347;SDS011;19707;51.158;17.124;2023-04-24T11:12:08;16.40;;;11.50;;
33347;SDS011;19707;51.158;17.124;2023-04-24T11:15:13;16.70;;;11.70;;
33347;SDS011;19707;51.158;17.124;2023-04-24T11:18:18;13.00;;;10.70;;
33347;SDS011;19707;51.158;17.124;2023-04-24T11:21:24;13.10;;;7.00;;
33347;SDS011;19707;51.158;17.124;2023-04-24T11:27:43;17.30;;;12.00;;
33347;SDS011;19707;51.158;17.124;2023-04-24T11:30:47;7.50;;;6.10;;
33347;SDS011;19707;51.158;17.124;2023-04-24T11:33:49;10.00;;;6.90;;
33347;SDS011;19707;51.158;17.124;2023-04-24T11:36:51;11.90;;;6.00;;
33347;SDS011;19707;51.158;17.124;2023-04-24T11:39:55;7.00;;;5.80;;
33347;SDS011;19707;51.158;17.124;2023-04-24T11:42:59;6.30;;;5.70;;
33347;SDS011;19707;51.158;17.124;2023-04-24T11:46:02;6.30;;;5.70;;
33347;SDS011;19707;51.158;17.124;2023-04-24T11:49:04;7.40;;;6.40;;
33347;SDS011;19707;51.158;17.124;2023-04-24T11:52:07;7.90;;;6.90;;
33347;SDS011;19707;51.158;17.124;2023-04-24T11:58:20;9.60;;;7.20;;
33347;SDS011;19707;51.158;17.124;2023-04-24T12:01:23;7.40;;;6.60;;
33347;SDS011;19707;51.158;17.124;2023-04-24T12:04:26;10.20;;;6.10;;
33347;SDS011;19707;51.158;17.124;2023-04-24T12:07:29;7.20;;;5.80;;
33347;SDS011;19707;51.158;17.124;2023-04-24T12:10:32;10.60;;;9.00;;
33347;SDS011;19707;51.158;17.124;2023-04-24T12:13:35;8.40;;;6.70;;
33347;SDS011;19707;51.158;17.124;2023-04-24T12:16:38;10.20;;;6.90;;
33347;SDS011;19707;51.158;17.124;2023-04-24T12:19:44;10.10;;;7.00;;
33347;SDS011;19707;51.158;17.124;2023-04-24T12:22:55;9.20;;;7.10;;
33347;SDS011;19707;51.158;17.124;2023-04-24T12:26:03;8.70;;;6.20;;
33347;SDS011;19707;51.158;17.124;2023-04-24T12:29:06;8.90;;;6.80;;
33347;SDS011;19707;51.158;17.124;2023-04-24T12:32:16;8.50;;;7.60;;
33347;SDS011;19707;51.158;17.124;2023-04-24T12:35:22;11.20;;;9.70;;
33347;SDS011;19707;51.158;17.124;2023-04-24T12:38:27;10.60;;;7.00;;
33347;SDS011;19707;51.158;17.124;2023-04-24T12:41:31;9.90;;;6.20;;
33347;SDS011;19707;51.158;17.124;2023-04-24T12:44:34;9.70;;;7.00;;
33347;SDS011;19707;51.158;17.124;2023-04-24T12:47:37;10.00;;;8.00;;
33347;SDS011;19707;51.158;17.124;2023-04-24T12:50:40;10.70;;;7.40;;
33347;SDS011;19707;51.158;17.124;2023-04-24T12:53:42;7.30;;;6.00;;
33347;SDS011;19707;51.158;17.124;2023-04-24T12:56:45;11.00;;;6.30;;
33347;SDS011;19707;51.158;17.124;2023-04-24T12:59:47;6.80;;;5.50;;
33347;SDS011;19707;51.158;17.124;2023-04-24T13:02:51;6.50;;;4.40;;
33347;SDS011;19707;51.158;17.124;2023-04-24T13:05:53;6.10;;;4.90;;
33347;SDS011;19707;51.158;17.124;2023-04-24T13:08:58;7.70;;;5.90;;
33347;SDS011;19707;51.158;17.124;2023-04-24T13:12:03;6.40;;;5.40;;
33347;SDS011;19707;51.158;17.124;2023-04-24T13:15:21;8.90;;;7.20;;
33347;SDS011;19707;51.158;17.124;2023-04-24T13:18:23;14.10;;;7.40;;
33347;SDS011;19707;51.158;17.124;2023-04-24T13:21:25;9.70;;;6.90;;
33347;SDS011;19707;51.158;17.124;2023-04-24T13:24:28;8.70;;;6.60;;
33347;SDS011;19707;51.158;17.124;2023-04-24T13:27:31;5.50;;;3.90;;
33347;SDS011;19707;51.158;17.124;2023-04-24T13:30:34;6.40;;;3.90;;
33347;SDS011;19707;51.158;17.124;2023-04-24T13:33:36;4.60;;;3.40;;
33347;SDS011;19707;51.158;17.124;2023-04-24T13:36:39;10.50;;;3.60;;
33347;SDS011;19707;51.158;17.124;2023-04-24T13:39:41;5.50;;;2.60;;
33347;SDS011;19707;51.158;17.124;2023-04-24T13:42:43;4.30;;;2.10;;
33347;SDS011;19707;51.158;17.124;2023-04-24T13:45:45;4.80;;;3.30;;
33347;SDS011;19707;51.158;17.124;2023-04-24T13:48:48;10.70;;;6.70;;
33347;SDS011;19707;51.158;17.124;2023-04-24T13:51:50;5.30;;;4.20;;
33347;SDS011;19707;51.158;17.124;2023-04-24T13:54:53;18.50;;;8.00;;
33347;SDS011;19707;51.158;17.124;2023-04-24T13:57:55;18.40;;;11.00;;
33347;SDS011;19707;51.158;17.124;2023-04-24T14:00:58;17.60;;;10.30;;
33347;SDS011;19707;51.158;17.124;2023-04-24T14:04:00;4.00;;;3.00;;
33347;SDS011;19707;51.158;17.124;2023-04-24T14:07:02;6.80;;;4.50;;
33347;SDS011;19707;51.158;17.124;2023-04-24T14:10:04;9.40;;;5.40;;
33347;SDS011;19707;51.158;17.124;2023-04-24T14:13:07;14.60;;;8.30;;
33347;SDS011;19707;51.158;17.124;2023-04-24T14:16:09;13.10;;;6.40;;
33347;SDS011;19707;51.158;17.124;2023-04-24T14:19:12;6.10;;;3.50;;
33347;SDS011;19707;51.158;17.124;2023-04-24T14:22:14;4.40;;;1.90;;
33347;SDS011;19707;51.158;17.124;2023-04-24T14:25:16;3.10;;;2.50;;
33347;SDS011;19707;51.158;17.124;2023-04-24T14:28:19;7.60;;;4.80;;
33347;SDS011;19707;51.158;17.124;2023-04-24T14:31:22;6.10;;;3.30;;
33347;SDS011;19707;51.158;17.124;2023-04-24T14:34:24;8.60;;;4.30;;
33347;SDS011;19707;51.158;17.124;2023-04-24T14:37:26;9.20;;;5.20;;
33347;SDS011;19707;51.158;17.124;2023-04-24T14:40:29;7.20;;;3.30;;
33347;SDS011;19707;51.158;17.124;2023-04-24T14:43:31;5.50;;;3.00;;
33347;SDS011;19707;51.158;17.124;2023-04-24T14:46:34;7.90;;;5.40;;
33347;SDS011;19707;51.158;17.124;2023-04-24T14:49:37;7.00;;;5.00;;
33347;SDS011;19707;51.158;17.124;2023-04-24T14:52:39;15.40;;;9.00;;
33347;SDS011;19707;51.158;17.124;2023-04-24T14:55:43;4.10;;;3.30;;
33347;SDS011;19707;51.158;17.124;2023-04-24T14:58:45;11.00;;;7.20;;
33347;SDS011;19707;51.158;17.124;2023-04-24T15:01:47;7.00;;;4.60;;
33347;SDS011;19707;51.158;17.124;2023-04-24T15:04:50;8.30;;;4.70;;
33347;SDS011;19707;51.158;17.124;2023-04-24T15:07:52;8.40;;;4.90;;
33347;SDS011;19707;51.158;17.124;2023-04-24T15:10:54;10.00;;;4.70;;
33347;SDS011;19707;51.158;17.124;2023-04-24T15:13:57;8.20;;;4.80;;
33347;SDS011;19707;51.158;17.124;2023-04-24T15:16:59;6.90;;;3.30;;
33347;SDS011;19707;51.158;17.124;2023-04-24T15:20:01;6.50;;;3.50;;
33347;SDS011;19707;51.158;17.124;2023-04-24T15:23:08;8.50;;;4.20;;
33347;SDS011;19707;51.158;17.124;2023-04-24T15:26:11;4.70;;;2.80;;
33347;SDS011;19707;51.158;17.124;2023-04-24T15:29:13;5.70;;;3.30;;
33347;SDS011;19707;51.158;17.124;2023-04-24T15:32:15;8.00;;;3.30;;
33347;SDS011;19707;51.158;17.124;2023-04-24T15:35:17;5.40;;;3.50;;
33347;SDS011;19707;51.158;17.124;2023-04-24T15:38:20;7.40;;;4.00;;
33347;SDS011;19707;51.158;17.124;2023-04-24T15:41:22;5.00;;;3.40;;
33347;SDS011;19707;51.158;17.124;2023-04-24T15:44:25;10.90;;;3.90;;
33347;SDS011;19707;51.158;17.124;2023-04-24T15:47:28;7.60;;;4.10;;
33347;SDS011;19707;51.158;17.124;2023-04-24T15:50:31;9.40;;;4.50;;
33347;SDS011;19707;51.158;17.124;2023-04-24T15:53:33;8.10;;;4.10;;
33347;SDS011;19707;51.158;17.124;2023-04-24T15:56:36;6.50;;;3.60;;
33347;SDS011;19707;51.158;17.124;2023-04-24T15:59:38;6.00;;;2.80;;
33347;SDS011;19707;51.158;17.124;2023-04-24T16:02:40;7.70;;;3.70;;
33347;SDS011;19707;51.158;17.124;2023-04-24T16:05:43;7.20;;;4.00;;
33347;SDS011;19707;51.158;17.124;2023-04-24T16:08:45;4.50;;;3.30;;
33347;SDS011;19707;51.158;17.124;2023-04-24T16:11:47;7.80;;;3.80;;
33347;SDS011;19707;51.158;17.124;2023-04-24T16:14:50;7.40;;;3.90;;
33347;SDS011;19707;51.158;17.124;2023-04-24T16:17:52;7.70;;;4.60;;
33347;SDS011;19707;51.158;17.124;2023-04-24T16:20:55;8.90;;;6.50;;
33347;SDS011;19707;51.158;17.124;2023-04-24T16:23:58;16.70;;;7.70;;
33347;SDS011;19707;51.158;17.124;2023-04-24T16:27:00;10.40;;;6.20;;
33347;SDS011;19707;51.158;17.124;2023-04-24T16:30:03;11.00;;;5.90;;
33347;SDS011;19707;51.158;17.124;2023-04-24T16:33:06;9.90;;;5.50;;
33347;SDS011;19707;51.158;17.124;2023-04-24T16:36:09;7.30;;;3.80;;
33347;SDS011;19707;51.158;17.124;2023-04-24T16:39:14;9.40;;;3.50;;
33347;SDS011;19707;51.158;17.124;2023-04-24T16:42:16;6.10;;;3.50;;
33347;SDS011;19707;51.158;17.124;2023-04-24T16:45:18;3.60;;;3.10;;
33347;SDS011;19707;51.158;17.124;2023-04-24T16:48:21;4.80;;;3.30;;
33347;SDS011;19707;51.158;17.124;2023-04-24T16:51:23;4.40;;;2.70;;
33347;SDS011;19707;51.158;17.124;2023-04-24T16:54:25;5.40;;;3.50;;
33347;SDS011;19707;51.158;17.124;2023-04-24T16:57:28;6.50;;;3.30;;
33347;SDS011;19707;51.158;17.124;2023-04-24T17:00:31;7.00;;;3.50;;
33347;SDS011;19707;51.158;17.124;2023-04-24T17:03:33;6.20;;;4.30;;
33347;SDS011;19707;51.158;17.124;2023-04-24T17:06:35;8.70;;;6.20;;
33347;SDS011;19707;51.158;17.124;2023-04-24T17:09:38;9.60;;;6.20;;
33347;SDS011;19707;51.158;17.124;2023-04-24T17:12:40;9.10;;;5.60;;
33347;SDS011;19707;51.158;17.124;2023-04-24T17:15:42;13.20;;;5.80;;
33347;SDS011;19707;51.158;17.124;2023-04-24T17:18:44;11.60;;;6.40;;
33347;SDS011;19707;51.158;17.124;2023-04-24T17:21:47;9.90;;;5.20;;
33347;SDS011;19707;51.158;17.124;2023-04-24T17:24:49;7.40;;;4.70;;
33347;SDS011;19707;51.158;17.124;2023-04-24T17:27:51;6.50;;;4.60;;
33347;SDS011;19707;51.158;17.124;2023-04-24T17:30:54;12.60;;;5.80;;
33347;SDS011;19707;51.158;17.124;2023-04-24T17:33:59;11.50;;;6.90;;
33347;SDS011;19707;51.158;17.124;2023-04-24T17:37:01;11.40;;;6.00;;
33347;SDS011;19707;51.158;17.124;2023-04-24T17:40:05;10.10;;;4.80;;
33347;SDS011;19707;51.158;17.124;2023-04-24T17:43:08;8.00;;;5.90;;
33347;SDS011;19707;51.158;17.124;2023-04-24T17:46:10;9.40;;;5.30;;
33347;SDS011;19707;51.158;17.124;2023-04-24T17:49:13;9.20;;;5.00;;
33347;SDS011;19707;51.158;17.124;2023-04-24T17:52:15;7.40;;;5.40;;
33347;SDS011;19707;51.158;17.124;2023-04-24T17:55:20;7.60;;;5.70;;
33347;SDS011;19707;51.158;17.124;2023-04-24T17:58:22;7.10;;;5.80;;